sensor_id;sensor_type;location;lat;lon;timestamp;P1;durP1;ratioP1;P2;durP2;ratioP2
23434;SDS011;11890;45.380;11.028;2023-02-26T00:02:01;93.97;;;39.78;;
23434;SDS011;11890;45.380;11.028;2023-02-26T00:04:29;81.25;;;38.92;;
23434;SDS011;11890;45.380;11.028;2023-02-26T00:06:57;90.72;;;38.72;;
23434;SDS011;11890;45.380;11.028;2023-02-26T00:09:25;83.60;;;39.95;;
23434;SDS011;11890;45.380;11.028;2023-02-26T00:11:54;83.50;;;39.35;;
23434;SDS011;11890;45.380;11.028;2023-02-26T00:14:22;86.68;;;39.90;;
23434;SDS011;11890;45.380;11.028;2023-02-26T00:19:37;84.55;;;38.58;;
23434;SDS011;11890;45.380;11.028;2023-02-26T00:22:09;81.68;;;38.60;;
23434;SDS011;11890;45.380;11.028;2023-02-26T00:24:37;85.18;;;39.72;;
23434;SDS011;11890;45.380;11.028;2023-02-26T00:27:05;91.70;;;40.22;;
23434;SDS011;11890;45.380;11.028;2023-02-26T00:29:33;86.70;;;37.97;;
23434;SDS011;11890;45.380;11.028;2023-02-26T00:32:01;82.95;;;37.92;;
23434;SDS011;11890;45.380;11.028;2023-02-26T00:34:29;89.18;;;40.55;;
23434;SDS011;11890;45.380;11.028;2023-02-26T00:42:24;92.38;;;39.25;;
23434;SDS011;11890;45.380;11.028;2023-02-26T00:44:53;79.93;;;37.08;;
23434;SDS011;11890;45.380;11.028;2023-02-26T00:50:20;82.60;;;37.65;;
23434;SDS011;11890;45.380;11.028;2023-02-26T00:55:17;90.70;;;38.90;;
23434;SDS011;11890;45.380;11.028;2023-02-26T00:57:45;85.47;;;37.50;;
23434;SDS011;11890;45.380;11.028;2023-02-26T01:00:13;86.15;;;37.20;;
23434;SDS011;11890;45.380;11.028;2023-02-26T01:02:42;78.57;;;35.90;;
23434;SDS011;11890;45.380;11.028;2023-02-26T01:05:10;80.25;;;37.45;;
23434;SDS011;11890;45.380;11.028;2023-02-26T01:10:25;78.13;;;36.92;;
23434;SDS011;11890;45.380;11.028;2023-02-26T01:12:53;78.57;;;35.35;;
23434;SDS011;11890;45.380;11.028;2023-02-26T01:15:23;76.38;;;34.55;;
23434;SDS011;11890;45.380;11.028;2023-02-26T01:17:59;73.45;;;34.13;;
23434;SDS011;11890;45.380;11.028;2023-02-26T01:20:35;69.85;;;33.33;;
23434;SDS011;11890;45.380;11.028;2023-02-26T01:23:06;66.45;;;32.45;;
23434;SDS011;11890;45.380;11.028;2023-02-26T01:28:06;77.55;;;37.33;;
23434;SDS011;11890;45.380;11.028;2023-02-26T01:30:34;82.30;;;36.72;;
23434;SDS011;11890;45.380;11.028;2023-02-26T01:43:11;78.20;;;32.92;;
23434;SDS011;11890;45.380;11.028;2023-02-26T01:45:58;77.60;;;34.90;;
23434;SDS011;11890;45.380;11.028;2023-02-26T01:48:33;78.63;;;34.13;;
23434;SDS011;11890;45.380;11.028;2023-02-26T01:51:03;82.10;;;35.83;;
23434;SDS011;11890;45.380;11.028;2023-02-26T01:53:32;84.35;;;37.30;;
23434;SDS011;11890;45.380;11.028;2023-02-26T01:56:04;77.38;;;35.92;;
23434;SDS011;11890;45.380;11.028;2023-02-26T01:58:33;83.10;;;36.20;;
23434;SDS011;11890;45.380;11.028;2023-02-26T02:01:02;84.45;;;37.00;;
23434;SDS011;11890;45.380;11.028;2023-02-26T02:03:31;78.95;;;38.08;;
23434;SDS011;11890;45.380;11.028;2023-02-26T02:06:05;77.35;;;36.78;;
23434;SDS011;11890;45.380;11.028;2023-02-26T02:11:02;84.32;;;35.33;;
23434;SDS011;11890;45.380;11.028;2023-02-26T02:23:42;80.97;;;34.05;;
23434;SDS011;11890;45.380;11.028;2023-02-26T02:31:29;40.17;;;11.52;;
23434;SDS011;11890;45.380;11.028;2023-02-26T02:34:03;20.67;;;6.53;;
23434;SDS011;11890;45.380;11.028;2023-02-26T02:39:21;18.65;;;3.45;;
23434;SDS011;11890;45.380;11.028;2023-02-26T02:41:53;21.55;;;3.25;;
23434;SDS011;11890;45.380;11.028;2023-02-26T02:44:24;10.18;;;2.67;;
23434;SDS011;11890;45.380;11.028;2023-02-26T02:46:53;9.90;;;2.72;;
23434;SDS011;11890;45.380;11.028;2023-02-26T02:49:28;4.45;;;1.85;;
23434;SDS011;11890;45.380;11.028;2023-02-26T02:52:00;6.20;;;2.15;;
23434;SDS011;11890;45.380;11.028;2023-02-26T02:54:33;3.08;;;1.50;;
23434;SDS011;11890;45.380;11.028;2023-02-26T02:57:07;6.40;;;1.67;;
23434;SDS011;11890;45.380;11.028;2023-02-26T02:59:41;9.48;;;1.30;;
23434;SDS011;11890;45.380;11.028;2023-02-26T03:02:12;4.50;;;1.20;;
23434;SDS011;11890;45.380;11.028;2023-02-26T03:04:40;2.75;;;1.00;;
23434;SDS011;11890;45.380;11.028;2023-02-26T03:07:09;5.35;;;1.48;;
23434;SDS011;11890;45.380;11.028;2023-02-26T03:09:37;2.55;;;0.80;;
23434;SDS011;11890;45.380;11.028;2023-02-26T03:12:05;2.95;;;0.95;;
23434;SDS011;11890;45.380;11.028;2023-02-26T03:14:33;2.92;;;1.05;;
23434;SDS011;11890;45.380;11.028;2023-02-26T03:19:59;2.75;;;0.98;;
23434;SDS011;11890;45.380;11.028;2023-02-26T03:22:37;3.00;;;0.70;;
23434;SDS011;11890;45.380;11.028;2023-02-26T03:25:15;3.88;;;1.00;;
23434;SDS011;11890;45.380;11.028;2023-02-26T03:27:48;2.05;;;0.68;;
23434;SDS011;11890;45.380;11.028;2023-02-26T03:35:32;2.42;;;0.60;;
23434;SDS011;11890;45.380;11.028;2023-02-26T03:38:03;1.92;;;0.88;;
23434;SDS011;11890;45.380;11.028;2023-02-26T03:40:35;1.25;;;0.50;;
23434;SDS011;11890;45.380;11.028;2023-02-26T03:43:12;3.25;;;0.50;;
23434;SDS011;11890;45.380;11.028;2023-02-26T03:45:41;2.42;;;0.50;;
23434;SDS011;11890;45.380;11.028;2023-02-26T03:48:11;1.27;;;0.50;;
23434;SDS011;11890;45.380;11.028;2023-02-26T03:50:44;0.68;;;0.40;;
23434;SDS011;11890;45.380;11.028;2023-02-26T03:53:53;1.53;;;0.27;;
23434;SDS011;11890;45.380;11.028;2023-02-26T03:56:27;0.50;;;0.30;;
23434;SDS011;11890;45.380;11.028;2023-02-26T03:59:14;5.30;;;0.20;;
23434;SDS011;11890;45.380;11.028;2023-02-26T04:04:23;0.75;;;0.30;;
23434;SDS011;11890;45.380;11.028;2023-02-26T04:06:53;0.30;;;0.20;;
23434;SDS011;11890;45.380;11.028;2023-02-26T04:09:21;0.85;;;0.40;;
23434;SDS011;11890;45.380;11.028;2023-02-26T04:11:50;0.95;;;0.30;;
23434;SDS011;11890;45.380;11.028;2023-02-26T04:14:19;0.75;;;0.30;;
23434;SDS011;11890;45.380;11.028;2023-02-26T04:16:47;2.45;;;0.40;;
23434;SDS011;11890;45.380;11.028;2023-02-26T04:19:15;1.70;;;0.28;;
23434;SDS011;11890;45.380;11.028;2023-02-26T04:21:44;2.13;;;0.30;;
23434;SDS011;11890;45.380;11.028;2023-02-26T04:24:15;5.13;;;0.35;;
23434;SDS011;11890;45.380;11.028;2023-02-26T04:26:43;1.40;;;0.20;;
23434;SDS011;11890;45.380;11.028;2023-02-26T04:29:12;3.80;;;0.40;;
23434;SDS011;11890;45.380;11.028;2023-02-26T04:31:40;0.45;;;0.30;;
23434;SDS011;11890;45.380;11.028;2023-02-26T04:34:09;0.88;;;0.30;;
23434;SDS011;11890;45.380;11.028;2023-02-26T04:36:38;0.65;;;0.25;;
23434;SDS011;11890;45.380;11.028;2023-02-26T04:39:07;1.95;;;0.28;;
23434;SDS011;11890;45.380;11.028;2023-02-26T04:41:37;1.67;;;0.13;;
23434;SDS011;11890;45.380;11.028;2023-02-26T04:44:05;1.92;;;0.20;;
23434;SDS011;11890;45.380;11.028;2023-02-26T04:46:35;3.15;;;0.32;;
23434;SDS011;11890;45.380;11.028;2023-02-26T04:49:03;4.28;;;0.35;;
23434;SDS011;11890;45.380;11.028;2023-02-26T04:51:31;4.78;;;0.30;;
23434;SDS011;11890;45.380;11.028;2023-02-26T04:53:59;0.88;;;0.22;;
23434;SDS011;11890;45.380;11.028;2023-02-26T04:56:27;0.25;;;0.20;;
23434;SDS011;11890;45.380;11.028;2023-02-26T04:58:56;0.28;;;0.20;;
23434;SDS011;11890;45.380;11.028;2023-02-26T05:01:27;0.68;;;0.30;;
23434;SDS011;11890;45.380;11.028;2023-02-26T05:03:57;2.17;;;0.30;;
23434;SDS011;11890;45.380;11.028;2023-02-26T05:06:25;0.30;;;0.30;;
23434;SDS011;11890;45.380;11.028;2023-02-26T05:08:53;1.92;;;0.40;;
23434;SDS011;11890;45.380;11.028;2023-02-26T05:11:21;1.42;;;0.40;;
23434;SDS011;11890;45.380;11.028;2023-02-26T05:13:49;1.50;;;0.20;;
23434;SDS011;11890;45.380;11.028;2023-02-26T05:16:17;0.93;;;0.35;;
23434;SDS011;11890;45.380;11.028;2023-02-26T05:18:45;2.25;;;0.20;;
23434;SDS011;11890;45.380;11.028;2023-02-26T05:21:13;4.60;;;0.65;;
23434;SDS011;11890;45.380;11.028;2023-02-26T05:23:41;0.73;;;0.40;;
23434;SDS011;11890;45.380;11.028;2023-02-26T05:26:09;0.68;;;0.22;;
23434;SDS011;11890;45.380;11.028;2023-02-26T05:28:37;2.78;;;0.40;;
23434;SDS011;11890;45.380;11.028;2023-02-26T05:31:05;0.38;;;0.20;;
23434;SDS011;11890;45.380;11.028;2023-02-26T05:33:34;0.20;;;0.20;;
23434;SDS011;11890;45.380;11.028;2023-02-26T05:36:02;0.80;;;0.30;;
23434;SDS011;11890;45.380;11.028;2023-02-26T05:38:30;4.18;;;0.28;;
23434;SDS011;11890;45.380;11.028;2023-02-26T05:40:58;0.55;;;0.30;;
23434;SDS011;11890;45.380;11.028;2023-02-26T05:43:26;0.50;;;0.28;;
23434;SDS011;11890;45.380;11.028;2023-02-26T05:45:54;0.95;;;0.28;;
23434;SDS011;11890;45.380;11.028;2023-02-26T05:48:22;0.52;;;0.30;;
23434;SDS011;11890;45.380;11.028;2023-02-26T05:50:50;0.20;;;0.20;;
23434;SDS011;11890;45.380;11.028;2023-02-26T05:53:18;0.55;;;0.30;;
23434;SDS011;11890;45.380;11.028;2023-02-26T05:55:46;7.63;;;0.40;;
23434;SDS011;11890;45.380;11.028;2023-02-26T05:58:15;0.35;;;0.30;;
23434;SDS011;11890;45.380;11.028;2023-02-26T06:00:43;1.15;;;0.30;;
23434;SDS011;11890;45.380;11.028;2023-02-26T06:03:11;0.73;;;0.30;;
23434;SDS011;11890;45.380;11.028;2023-02-26T06:05:41;0.82;;;0.20;;
23434;SDS011;11890;45.380;11.028;2023-02-26T06:08:09;10.23;;;3.17;;
23434;SDS011;11890;45.380;11.028;2023-02-26T06:10:41;1.88;;;0.70;;
23434;SDS011;11890;45.380;11.028;2023-02-26T06:13:09;1.17;;;0.40;;
23434;SDS011;11890;45.380;11.028;2023-02-26T06:15:37;0.52;;;0.30;;
23434;SDS011;11890;45.380;11.028;2023-02-26T06:18:05;0.55;;;0.30;;
23434;SDS011;11890;45.380;11.028;2023-02-26T06:20:34;0.55;;;0.30;;
23434;SDS011;11890;45.380;11.028;2023-02-26T06:23:03;1.27;;;0.40;;
23434;SDS011;11890;45.380;11.028;2023-02-26T06:25:30;0.57;;;0.32;;
23434;SDS011;11890;45.380;11.028;2023-02-26T06:27:58;7.22;;;3.85;;
23434;SDS011;11890;45.380;11.028;2023-02-26T06:30:26;1.63;;;1.00;;
23434;SDS011;11890;45.380;11.028;2023-02-26T06:32:54;0.50;;;0.30;;
23434;SDS011;11890;45.380;11.028;2023-02-26T06:35:22;4.13;;;2.60;;
23434;SDS011;11890;45.380;11.028;2023-02-26T06:37:50;3.28;;;1.40;;
23434;SDS011;11890;45.380;11.028;2023-02-26T06:40:18;0.30;;;0.30;;
23434;SDS011;11890;45.380;11.028;2023-02-26T06:42:46;0.98;;;0.40;;
23434;SDS011;11890;45.380;11.028;2023-02-26T06:45:14;0.40;;;0.30;;
23434;SDS011;11890;45.380;11.028;2023-02-26T06:47:42;0.20;;;0.20;;
23434;SDS011;11890;45.380;11.028;2023-02-26T06:50:11;0.75;;;0.30;;
23434;SDS011;11890;45.380;11.028;2023-02-26T06:52:39;0.70;;;0.50;;
23434;SDS011;11890;45.380;11.028;2023-02-26T06:55:07;0.63;;;0.20;;
23434;SDS011;11890;45.380;11.028;2023-02-26T06:57:35;7.55;;;4.57;;
23434;SDS011;11890;45.380;11.028;2023-02-26T07:00:04;2.80;;;1.35;;
23434;SDS011;11890;45.380;11.028;2023-02-26T07:02:32;2.47;;;0.30;;
23434;SDS011;11890;45.380;11.028;2023-02-26T07:05:00;0.45;;;0.20;;
23434;SDS011;11890;45.380;11.028;2023-02-26T07:07:28;0.77;;;0.30;;
23434;SDS011;11890;45.380;11.028;2023-02-26T07:09:56;1.60;;;0.50;;
23434;SDS011;11890;45.380;11.028;2023-02-26T07:12:24;1.08;;;0.30;;
23434;SDS011;11890;45.380;11.028;2023-02-26T07:14:52;5.93;;;3.25;;
23434;SDS011;11890;45.380;11.028;2023-02-26T07:17:20;3.13;;;1.42;;
23434;SDS011;11890;45.380;11.028;2023-02-26T07:19:49;0.98;;;0.30;;
23434;SDS011;11890;45.380;11.028;2023-02-26T07:22:17;0.75;;;0.30;;
23434;SDS011;11890;45.380;11.028;2023-02-26T07:24:48;2.03;;;0.30;;
23434;SDS011;11890;45.380;11.028;2023-02-26T07:27:18;4.47;;;0.50;;
23434;SDS011;11890;45.380;11.028;2023-02-26T07:29:46;0.55;;;0.30;;
23434;SDS011;11890;45.380;11.028;2023-02-26T07:32:13;0.85;;;0.43;;
23434;SDS011;11890;45.380;11.028;2023-02-26T07:34:42;0.50;;;0.30;;
23434;SDS011;11890;45.380;11.028;2023-02-26T07:37:09;0.45;;;0.30;;
23434;SDS011;11890;45.380;11.028;2023-02-26T07:39:37;1.95;;;0.52;;
23434;SDS011;11890;45.380;11.028;2023-02-26T07:42:05;0.63;;;0.30;;
23434;SDS011;11890;45.380;11.028;2023-02-26T07:44:33;0.70;;;0.40;;
23434;SDS011;11890;45.380;11.028;2023-02-26T07:47:02;3.28;;;0.40;;
23434;SDS011;11890;45.380;11.028;2023-02-26T07:49:30;1.73;;;0.40;;
23434;SDS011;11890;45.380;11.028;2023-02-26T07:51:59;2.53;;;1.50;;
23434;SDS011;11890;45.380;11.028;2023-02-26T07:54:27;2.53;;;1.40;;
23434;SDS011;11890;45.380;11.028;2023-02-26T07:56:55;2.97;;;1.25;;
23434;SDS011;11890;45.380;11.028;2023-02-26T07:59:23;1.02;;;0.60;;
23434;SDS011;11890;45.380;11.028;2023-02-26T08:01:51;1.00;;;0.40;;
23434;SDS011;11890;45.380;11.028;2023-02-26T08:04:19;1.65;;;0.55;;
23434;SDS011;11890;45.380;11.028;2023-02-26T08:06:47;1.42;;;0.40;;
23434;SDS011;11890;45.380;11.028;2023-02-26T08:09:15;1.02;;;0.45;;
23434;SDS011;11890;45.380;11.028;2023-02-26T08:11:43;0.70;;;0.35;;
23434;SDS011;11890;45.380;11.028;2023-02-26T08:14:11;1.98;;;0.90;;
23434;SDS011;11890;45.380;11.028;2023-02-26T08:16:39;1.27;;;0.60;;
23434;SDS011;11890;45.380;11.028;2023-02-26T08:19:07;0.80;;;0.30;;
23434;SDS011;11890;45.380;11.028;2023-02-26T08:21:34;1.13;;;0.50;;
23434;SDS011;11890;45.380;11.028;2023-02-26T08:24:03;0.43;;;0.40;;
23434;SDS011;11890;45.380;11.028;2023-02-26T08:26:33;0.95;;;0.60;;
23434;SDS011;11890;45.380;11.028;2023-02-26T08:29:01;0.70;;;0.40;;
23434;SDS011;11890;45.380;11.028;2023-02-26T08:31:29;1.35;;;0.60;;
23434;SDS011;11890;45.380;11.028;2023-02-26T08:33:58;2.15;;;0.45;;
23434;SDS011;11890;45.380;11.028;2023-02-26T08:36:26;1.08;;;0.43;;
23434;SDS011;11890;45.380;11.028;2023-02-26T08:38:54;1.27;;;0.55;;
23434;SDS011;11890;45.380;11.028;2023-02-26T08:41:22;2.42;;;0.50;;
23434;SDS011;11890;45.380;11.028;2023-02-26T08:43:50;1.90;;;0.80;;
23434;SDS011;11890;45.380;11.028;2023-02-26T08:46:18;2.25;;;0.80;;
23434;SDS011;11890;45.380;11.028;2023-02-26T08:48:46;2.13;;;1.10;;
23434;SDS011;11890;45.380;11.028;2023-02-26T08:51:14;2.42;;;0.50;;
23434;SDS011;11890;45.380;11.028;2023-02-26T08:53:44;1.20;;;0.70;;
23434;SDS011;11890;45.380;11.028;2023-02-26T08:56:16;1.23;;;0.80;;
23434;SDS011;11890;45.380;11.028;2023-02-26T08:58:45;1.55;;;0.70;;
23434;SDS011;11890;45.380;11.028;2023-02-26T09:01:13;0.65;;;0.40;;
23434;SDS011;11890;45.380;11.028;2023-02-26T09:03:40;1.05;;;0.65;;
23434;SDS011;11890;45.380;11.028;2023-02-26T09:06:08;2.03;;;1.20;;
23434;SDS011;11890;45.380;11.028;2023-02-26T09:08:36;1.50;;;0.85;;
23434;SDS011;11890;45.380;11.028;2023-02-26T09:11:05;4.35;;;1.75;;
23434;SDS011;11890;45.380;11.028;2023-02-26T09:13:33;2.55;;;1.42;;
23434;SDS011;11890;45.380;11.028;2023-02-26T09:16:01;3.22;;;1.65;;
23434;SDS011;11890;45.380;11.028;2023-02-26T09:18:29;5.63;;;2.88;;
23434;SDS011;11890;45.380;11.028;2023-02-26T09:20:57;4.38;;;1.52;;
23434;SDS011;11890;45.380;11.028;2023-02-26T09:23:25;2.33;;;1.05;;
23434;SDS011;11890;45.380;11.028;2023-02-26T09:25:54;2.63;;;0.85;;
23434;SDS011;11890;45.380;11.028;2023-02-26T09:28:22;2.40;;;1.13;;
23434;SDS011;11890;45.380;11.028;2023-02-26T09:30:51;5.15;;;2.45;;
23434;SDS011;11890;45.380;11.028;2023-02-26T09:33:20;2.25;;;1.17;;
23434;SDS011;11890;45.380;11.028;2023-02-26T09:35:49;2.90;;;1.10;;
23434;SDS011;11890;45.380;11.028;2023-02-26T09:38:17;2.13;;;1.00;;
23434;SDS011;11890;45.380;11.028;2023-02-26T09:40:47;1.83;;;0.80;;
23434;SDS011;11890;45.380;11.028;2023-02-26T09:43:29;1.77;;;1.10;;
23434;SDS011;11890;45.380;11.028;2023-02-26T09:46:02;2.35;;;1.08;;
23434;SDS011;11890;45.380;11.028;2023-02-26T09:48:31;2.03;;;0.80;;
23434;SDS011;11890;45.380;11.028;2023-02-26T09:51:01;3.25;;;0.80;;
23434;SDS011;11890;45.380;11.028;2023-02-26T09:53:31;1.60;;;0.77;;
23434;SDS011;11890;45.380;11.028;2023-02-26T09:56:02;1.13;;;0.70;;
23434;SDS011;11890;45.380;11.028;2023-02-26T09:58:36;1.05;;;0.70;;
23434;SDS011;11890;45.380;11.028;2023-02-26T10:06:29;16.88;;;12.20;;
23434;SDS011;11890;45.380;11.028;2023-02-26T10:11:35;1.90;;;1.20;;
23434;SDS011;11890;45.380;11.028;2023-02-26T10:14:14;1.80;;;0.77;;
23434;SDS011;11890;45.380;11.028;2023-02-26T10:16:45;1.88;;;0.98;;
23434;SDS011;11890;45.380;11.028;2023-02-26T10:19:17;1.60;;;0.90;;
23434;SDS011;11890;45.380;11.028;2023-02-26T10:21:47;1.90;;;1.00;;
23434;SDS011;11890;45.380;11.028;2023-02-26T10:26:53;2.28;;;1.00;;
23434;SDS011;11890;45.380;11.028;2023-02-26T10:34:34;1.60;;;0.75;;
23434;SDS011;11890;45.380;11.028;2023-02-26T10:42:14;1.30;;;0.85;;
23434;SDS011;11890;45.380;11.028;2023-02-26T10:44:50;2.08;;;1.08;;
23434;SDS011;11890;45.380;11.028;2023-02-26T10:50:09;1.15;;;0.80;;
23434;SDS011;11890;45.380;11.028;2023-02-26T10:52:38;1.33;;;0.85;;
23434;SDS011;11890;45.380;11.028;2023-02-26T10:58:33;2.75;;;1.00;;
23434;SDS011;11890;45.380;11.028;2023-02-26T11:01:00;10.48;;;3.95;;
23434;SDS011;11890;45.380;11.028;2023-02-26T11:03:35;3.17;;;1.75;;
23434;SDS011;11890;45.380;11.028;2023-02-26T11:06:05;1.83;;;0.95;;
23434;SDS011;11890;45.380;11.028;2023-02-26T11:08:38;1.33;;;0.80;;
23434;SDS011;11890;45.380;11.028;2023-02-26T11:11:07;1.92;;;0.80;;
23434;SDS011;11890;45.380;11.028;2023-02-26T11:13:36;2.33;;;0.73;;
23434;SDS011;11890;45.380;11.028;2023-02-26T11:16:10;2.70;;;1.00;;
23434;SDS011;11890;45.380;11.028;2023-02-26T11:18:39;1.80;;;0.85;;
23434;SDS011;11890;45.380;11.028;2023-02-26T11:21:07;2.13;;;1.20;;
23434;SDS011;11890;45.380;11.028;2023-02-26T11:23:35;2.58;;;1.33;;
23434;SDS011;11890;45.380;11.028;2023-02-26T11:26:06;2.05;;;0.98;;
23434;SDS011;11890;45.380;11.028;2023-02-26T11:28:36;2.83;;;0.90;;
23434;SDS011;11890;45.380;11.028;2023-02-26T11:31:05;2.47;;;1.30;;
23434;SDS011;11890;45.380;11.028;2023-02-26T11:33:35;1.73;;;0.98;;
23434;SDS011;11890;45.380;11.028;2023-02-26T11:36:07;1.33;;;0.88;;
23434;SDS011;11890;45.380;11.028;2023-02-26T11:38:35;1.58;;;0.90;;
23434;SDS011;11890;45.380;11.028;2023-02-26T11:41:15;1.27;;;0.80;;
23434;SDS011;11890;45.380;11.028;2023-02-26T11:43:44;2.80;;;0.95;;
23434;SDS011;11890;45.380;11.028;2023-02-26T11:46:13;2.90;;;1.38;;
23434;SDS011;11890;45.380;11.028;2023-02-26T11:48:45;1.77;;;0.80;;
23434;SDS011;11890;45.380;11.028;2023-02-26T11:51:18;3.97;;;0.90;;
23434;SDS011;11890;45.380;11.028;2023-02-26T11:53:57;7.57;;;3.50;;
23434;SDS011;11890;45.380;11.028;2023-02-26T11:56:34;5.22;;;1.42;;
23434;SDS011;11890;45.380;11.028;2023-02-26T11:59:06;1.63;;;1.05;;
23434;SDS011;11890;45.380;11.028;2023-02-26T12:01:46;20.42;;;10.18;;
23434;SDS011;11890;45.380;11.028;2023-02-26T12:04:17;1.45;;;0.80;;
23434;SDS011;11890;45.380;11.028;2023-02-26T12:06:46;2.13;;;0.82;;
23434;SDS011;11890;45.380;11.028;2023-02-26T12:09:16;1.08;;;0.65;;
23434;SDS011;11890;45.380;11.028;2023-02-26T12:11:48;1.10;;;0.75;;
23434;SDS011;11890;45.380;11.028;2023-02-26T12:19:37;2.85;;;1.20;;
23434;SDS011;11890;45.380;11.028;2023-02-26T12:27:55;1.98;;;0.88;;
23434;SDS011;11890;45.380;11.028;2023-02-26T12:41:04;1.35;;;0.70;;
23434;SDS011;11890;45.380;11.028;2023-02-26T12:43:46;1.92;;;0.70;;
23434;SDS011;11890;45.380;11.028;2023-02-26T12:57:10;1.70;;;0.80;;
23434;SDS011;11890;45.380;11.028;2023-02-26T13:07:48;2.13;;;0.75;;
23434;SDS011;11890;45.380;11.028;2023-02-26T13:10:23;1.88;;;0.77;;
23434;SDS011;11890;45.380;11.028;2023-02-26T13:20:31;1.50;;;0.80;;
23434;SDS011;11890;45.380;11.028;2023-02-26T13:28:21;1.48;;;0.50;;
23434;SDS011;11890;45.380;11.028;2023-02-26T13:30:52;0.50;;;0.50;;
23434;SDS011;11890;45.380;11.028;2023-02-26T13:33:22;0.95;;;0.65;;
23434;SDS011;11890;45.380;11.028;2023-02-26T13:35:51;1.90;;;0.98;;
23434;SDS011;11890;45.380;11.028;2023-02-26T13:38:37;0.95;;;0.40;;
23434;SDS011;11890;45.380;11.028;2023-02-26T13:41:13;0.50;;;0.40;;
23434;SDS011;11890;45.380;11.028;2023-02-26T13:51:43;0.77;;;0.50;;
23434;SDS011;11890;45.380;11.028;2023-02-26T14:04:51;0.60;;;0.40;;
23434;SDS011;11890;45.380;11.028;2023-02-26T14:10:17;1.30;;;0.60;;
23434;SDS011;11890;45.380;11.028;2023-02-26T14:15:49;1.27;;;0.57;;
23434;SDS011;11890;45.380;11.028;2023-02-26T14:18:30;0.50;;;0.40;;
23434;SDS011;11890;45.380;11.028;2023-02-26T14:23:45;0.93;;;0.40;;
23434;SDS011;11890;45.380;11.028;2023-02-26T14:26:16;2.80;;;1.65;;
23434;SDS011;11890;45.380;11.028;2023-02-26T14:28:53;1.02;;;0.52;;
23434;SDS011;11890;45.380;11.028;2023-02-26T14:31:22;0.70;;;0.60;;
23434;SDS011;11890;45.380;11.028;2023-02-26T14:34:13;0.70;;;0.60;;
23434;SDS011;11890;45.380;11.028;2023-02-26T14:36:43;1.58;;;0.60;;
23434;SDS011;11890;45.380;11.028;2023-02-26T14:42:11;1.55;;;0.65;;
23434;SDS011;11890;45.380;11.028;2023-02-26T14:44:42;0.95;;;0.70;;
23434;SDS011;11890;45.380;11.028;2023-02-26T14:47:10;1.10;;;0.60;;
23434;SDS011;11890;45.380;11.028;2023-02-26T14:49:40;2.78;;;0.57;;
23434;SDS011;11890;45.380;11.028;2023-02-26T14:54:46;3.72;;;0.90;;
23434;SDS011;11890;45.380;11.028;2023-02-26T15:02:39;0.68;;;0.40;;
23434;SDS011;11890;45.380;11.028;2023-02-26T15:05:15;0.85;;;0.40;;
23434;SDS011;11890;45.380;11.028;2023-02-26T15:07:55;0.85;;;0.43;;
23434;SDS011;11890;45.380;11.028;2023-02-26T15:23:45;3.50;;;0.80;;
23434;SDS011;11890;45.380;11.028;2023-02-26T15:26:49;1.67;;;0.82;;
23434;SDS011;11890;45.380;11.028;2023-02-26T15:29:08;10.57;;;4.13;;
23434;SDS011;11890;45.380;11.028;2023-02-26T15:31:51;2.17;;;1.10;;
23434;SDS011;11890;45.380;11.028;2023-02-26T15:34:20;1.48;;;0.80;;
23434;SDS011;11890;45.380;11.028;2023-02-26T15:36:49;1.20;;;0.50;;
23434;SDS011;11890;45.380;11.028;2023-02-26T15:39:21;0.75;;;0.40;;
23434;SDS011;11890;45.380;11.028;2023-02-26T15:41:50;1.58;;;0.80;;
23434;SDS011;11890;45.380;11.028;2023-02-26T15:44:23;1.42;;;0.77;;
23434;SDS011;11890;45.380;11.028;2023-02-26T15:46:53;2.92;;;0.70;;
23434;SDS011;11890;45.380;11.028;2023-02-26T15:52:02;35.83;;;17.52;;
23434;SDS011;11890;45.380;11.028;2023-02-26T15:54:33;10.80;;;6.28;;
23434;SDS011;11890;45.380;11.028;2023-02-26T15:57:02;12.02;;;5.78;;
23434;SDS011;11890;45.380;11.028;2023-02-26T15:59:30;2.63;;;1.50;;
23434;SDS011;11890;45.380;11.028;2023-02-26T16:02:00;1.88;;;1.00;;
23434;SDS011;11890;45.380;11.028;2023-02-26T16:04:28;3.30;;;1.40;;
23434;SDS011;11890;45.380;11.028;2023-02-26T16:06:56;2.75;;;1.15;;
23434;SDS011;11890;45.380;11.028;2023-02-26T16:09:26;2.85;;;1.50;;
23434;SDS011;11890;45.380;11.028;2023-02-26T16:11:56;5.13;;;2.25;;
23434;SDS011;11890;45.380;11.028;2023-02-26T16:14:27;3.22;;;2.00;;
23434;SDS011;11890;45.380;11.028;2023-02-26T16:16:56;3.92;;;1.95;;
23434;SDS011;11890;45.380;11.028;2023-02-26T16:19:37;4.30;;;2.08;;
23434;SDS011;11890;45.380;11.028;2023-02-26T16:24:52;5.65;;;2.58;;
23434;SDS011;11890;45.380;11.028;2023-02-26T16:27:23;3.70;;;1.40;;
23434;SDS011;11890;45.380;11.028;2023-02-26T16:29:52;16.50;;;9.27;;
23434;SDS011;11890;45.380;11.028;2023-02-26T16:32:21;4.05;;;1.80;;
23434;SDS011;11890;45.380;11.028;2023-02-26T16:34:55;4.22;;;1.27;;
23434;SDS011;11890;45.380;11.028;2023-02-26T16:45:27;1.90;;;1.30;;
23434;SDS011;11890;45.380;11.028;2023-02-26T16:48:11;3.03;;;1.48;;
23434;SDS011;11890;45.380;11.028;2023-02-26T16:50:40;3.25;;;1.38;;
23434;SDS011;11890;45.380;11.028;2023-02-26T16:53:15;59.67;;;35.22;;
23434;SDS011;11890;45.380;11.028;2023-02-26T16:55:51;3.95;;;2.60;;
23434;SDS011;11890;45.380;11.028;2023-02-26T16:58:20;2.60;;;1.30;;
23434;SDS011;11890;45.380;11.028;2023-02-26T17:00:51;3.10;;;1.65;;
23434;SDS011;11890;45.380;11.028;2023-02-26T17:03:24;4.75;;;2.45;;
23434;SDS011;11890;45.380;11.028;2023-02-26T17:06:00;4.80;;;1.80;;
23434;SDS011;11890;45.380;11.028;2023-02-26T17:08:41;3.80;;;1.52;;
23434;SDS011;11890;45.380;11.028;2023-02-26T17:11:17;3.83;;;1.70;;
23434;SDS011;11890;45.380;11.028;2023-02-26T17:13:47;4.15;;;1.60;;
23434;SDS011;11890;45.380;11.028;2023-02-26T17:16:23;3.08;;;1.70;;
23434;SDS011;11890;45.380;11.028;2023-02-26T17:18:51;7.00;;;3.63;;
23434;SDS011;11890;45.380;11.028;2023-02-26T17:21:19;15.35;;;5.70;;
23434;SDS011;11890;45.380;11.028;2023-02-26T17:23:47;7.38;;;4.05;;
23434;SDS011;11890;45.380;11.028;2023-02-26T17:26:15;2.38;;;1.42;;
23434;SDS011;11890;45.380;11.028;2023-02-26T17:28:43;2.65;;;1.50;;
23434;SDS011;11890;45.380;11.028;2023-02-26T17:31:11;2.90;;;1.60;;
23434;SDS011;11890;45.380;11.028;2023-02-26T17:33:41;4.30;;;1.60;;
23434;SDS011;11890;45.380;11.028;2023-02-26T17:36:12;2.70;;;1.40;;
23434;SDS011;11890;45.380;11.028;2023-02-26T17:38:40;3.03;;;1.80;;
23434;SDS011;11890;45.380;11.028;2023-02-26T17:41:16;2.70;;;1.42;;
23434;SDS011;11890;45.380;11.028;2023-02-26T17:43:45;6.22;;;3.90;;
23434;SDS011;11890;45.380;11.028;2023-02-26T17:46:13;31.92;;;17.40;;
23434;SDS011;11890;45.380;11.028;2023-02-26T17:48:41;4.72;;;2.92;;
23434;SDS011;11890;45.380;11.028;2023-02-26T17:51:09;2.47;;;1.67;;
23434;SDS011;11890;45.380;11.028;2023-02-26T17:53:40;3.88;;;1.88;;
23434;SDS011;11890;45.380;11.028;2023-02-26T17:56:10;3.38;;;1.60;;
23434;SDS011;11890;45.380;11.028;2023-02-26T17:58:41;2.25;;;1.35;;
23434;SDS011;11890;45.380;11.028;2023-02-26T18:01:09;4.50;;;1.65;;
23434;SDS011;11890;45.380;11.028;2023-02-26T18:03:37;3.67;;;1.88;;
23434;SDS011;11890;45.380;11.028;2023-02-26T18:06:06;2.65;;;1.33;;
23434;SDS011;11890;45.380;11.028;2023-02-26T18:08:34;2.83;;;1.80;;
23434;SDS011;11890;45.380;11.028;2023-02-26T18:11:02;3.20;;;1.83;;
23434;SDS011;11890;45.380;11.028;2023-02-26T18:13:30;2.58;;;1.67;;
23434;SDS011;11890;45.380;11.028;2023-02-26T18:15:59;3.38;;;1.83;;